Van Star — H9TX — position and weather

sailwx.info

Track history (hours):
 
Tides and Currents Weather Stations Pressure Air Temp Water Temp Dewpoint Dewpoint Depression Visibility Wind Speed Wind Dir Waves Ship Positions

Van Star

Last reported at 2017-Dec-09 16:31 UTC. Time now 2017-Dec-16 15:12 UTC.
Position N 29°60' W 121°59'.

Length 199 m; draft 13.9 m.

Type: Cargo ship. MMSI: 354084000.

Date/timePositionNaut miles runAvg speedWind from/ knotsBaromVisibWave heightAir tempDewpointWater temp
2017-Dec-09 16:31N 29°60' W 121°59'0 6.5
2017-Dec-09 16:30N 29°60' W 121°59'3712.8
2017-Dec-09 13:35N 30°30' W 122°24'113.0
2017-Dec-09 13:29N 30°31' W 122°25'612.8
2017-Dec-09 13:01N 30°36' W 122°29'21212.8
2017-Dec-08 20:25N 33°31' W 124°50'613.0
2017-Dec-08 19:58N 33°36' W 124°54'1012.8
2017-Dec-08 19:11N 33°44' W 125°01'212.6
2017-Dec-08 19:01N 33°46' W 125°02'712.8
2017-Dec-08 18:28N 33°52' W 125°07'10813.0
2017-Dec-08 10:10N 35°21' W 126°20'513.2
2017-Dec-08 09:47N 35°25' W 126°23'1013.1
2017-Dec-08 08:59N 35°34' W 126°31'1112.9
2017-Dec-08 08:09N 35°43' W 126°38'212.8
2017-Dec-08 08:00N 35°44' W 126°39'713.1
2017-Dec-08 07:30N 35°50' W 126°44'713.2
2017-Dec-08 07:00N 35°56' W 126°48'613.2
2017-Dec-08 06:31N 36°01' W 126°53'713.1
2017-Dec-08 06:00N 36°06' W 126°58'612.9
2017-Dec-08 05:30N 36°11' W 127°02'612.8
2017-Dec-08 05:00N 36°16' W 127°07'713.3
2017-Dec-08 04:31N 36°22' W 127°12'713.3
2017-Dec-08 04:01N 36°27' W 127°17'713.3
2017-Dec-08 03:30N 36°33' W 127°21'913.5
2017-Dec-08 02:51N 36°40' W 127°27'513.5
2017-Dec-08 02:30N 36°44' W 127°31'713.5
2017-Dec-08 01:57N 36°50' W 127°36'2113.2
2017-Dec-08 00:23N 37°08' W 127°50'9812.8
2017-Dec-07 16:42N 38°38' W 128°39'212.6
2017-Dec-07 16:30N 38°40' W 128°41'712.7
2017-Dec-07 15:57N 38°47' W 128°44'25112.9
2017-Dec-06 20:30N 42°37' W 130°57'  
2017-Dec-03 09:19N 54°21' W 131°10'411.2
2017-Dec-03 09:00N 54°20' W 131°04'510.8
2017-Dec-03 08:30N 54°19' W 130°55'510.2
2017-Dec-03 08:00N 54°17' W 130°47'510.7
2017-Dec-03 07:30N 54°15' W 130°39'511.0
2017-Dec-03 07:00N 54°14' W 130°30'5 9.9
2017-Dec-03 06:30N 54°13' W 130°21'4 8.4
2017-Dec-03 06:00N 54°17' W 130°22'4 7.6
2017-Dec-03 05:31N 54°20' W 130°17'0 0.5
2017-Dec-03 05:00N 54°20' W 130°17'0 0.0
2017-Dec-03 04:30N 54°20' W 130°17'0 0.1
2017-Dec-03 04:00N 54°20' W 130°18'0 0.0
2017-Dec-03 03:30N 54°20' W 130°18'0 0.0
2017-Dec-03 03:00N 54°20' W 130°18'0 0.1
2017-Dec-03 02:30N 54°20' W 130°18'0 0.0
2017-Dec-03 02:00N 54°20' W 130°18'0 0.0
2017-Dec-03 01:30N 54°20' W 130°18'0 0.0
2017-Dec-03 01:00N 54°20' W 130°18'0 0.1
2017-Dec-03 00:30N 54°20' W 130°17'0 0.1
2017-Dec-03 00:00N 54°20' W 130°18'0 0.2
2017-Dec-02 23:30N 54°20' W 130°18'0 0.0
2017-Dec-02 23:00N 54°20' W 130°18'0 0.0
2017-Dec-02 22:30N 54°20' W 130°18'0 0.1
2017-Dec-02 22:00N 54°20' W 130°17'0 0.1
2017-Dec-02 21:27N 54°20' W 130°18'0 0.1
2017-Dec-02 21:00N 54°20' W 130°18'0 0.2
2017-Dec-02 20:30N 54°20' W 130°17'0 0.2
2017-Dec-02 19:45N 54°20' W 130°17'0 0.1
2017-Dec-02 19:30N 54°20' W 130°17'0 0.1
2017-Dec-02 19:00N 54°20' W 130°17'0 0.1
2017-Dec-02 17:36N 54°20' W 130°17'0 0.1
2017-Dec-02 17:24N 54°20' W 130°17'0 0.1
2017-Dec-02 16:36N 54°20' W 130°18'0 0.0
2017-Dec-02 16:21N 54°20' W 130°18'0 0.0
2017-Dec-02 14:27N 54°20' W 130°18'0 0.0
2017-Dec-02 13:42N 54°20' W 130°18'0 0.0
2017-Dec-02 13:27N 54°20' W 130°18'0 0.1
2017-Dec-02 12:57N 54°20' W 130°18'0 0.0
2017-Dec-02 08:12N 54°20' W 130°17'0 0.1
2017-Dec-02 08:00N 54°20' W 130°17'0 0.0
2017-Dec-02 07:30N 54°20' W 130°17'0 0.1
2017-Dec-02 06:51N 54°20' W 130°17'0 0.1
2017-Dec-02 04:00N 54°20' W 130°18'0 0.0
2017-Dec-02 03:26N 54°20' W 130°18'0 0.0
2017-Dec-02 02:39N 54°20' W 130°18'0 0.0
2017-Dec-02 02:30N 54°20' W 130°18'0 0.2
2017-Dec-02 02:00N 54°20' W 130°17'3 3.5
2017-Dec-02 01:10N 54°19' W 130°21'1 7.4
2017-Dec-02 01:00N 54°17' W 130°22'3 6.8
2017-Dec-02 00:30N 54°14' W 130°21'0 0.6
2017-Dec-01 23:59N 54°14' W 130°20'0 0.0
2017-Dec-01 23:29N 54°14' W 130°20'0 0.0
2017-Dec-01 22:59N 54°14' W 130°20'0 0.0
2017-Dec-01 22:29N 54°14' W 130°20'0 0.0
2017-Dec-01 21:56N 54°14' W 130°20'0 0.0
2017-Dec-01 21:29N 54°14' W 130°20'0 0.0
2017-Dec-01 20:56N 54°14' W 130°20'0 0.0
2017-Dec-01 20:29N 54°14' W 130°20'0 0.0
2017-Dec-01 19:59N 54°14' W 130°20'0 0.0
2017-Dec-01 19:29N 54°14' W 130°20'0 0.0
2017-Dec-01 18:59N 54°14' W 130°20'0 0.0
2017-Dec-01 18:26N 54°14' W 130°20'0 0.0
2017-Dec-01 17:59N 54°14' W 130°20'0 0.0
2017-Dec-01 17:29N 54°14' W 130°20'0 0.0
2017-Dec-01 16:56N 54°14' W 130°20'0 0.0
2017-Dec-01 16:29N 54°14' W 130°20'0 0.0
2017-Dec-01 15:59N 54°14' W 130°20'0 0.0
2017-Dec-01 15:29N 54°14' W 130°20'0 0.0
2017-Dec-01 14:59N 54°14' W 130°20'0 0.0
2017-Dec-01 14:29N 54°14' W 130°20'0 0.0
2017-Dec-01 13:59N 54°14' W 130°20'0 0.0
2017-Dec-01 13:29N 54°14' W 130°20'0 0.0
2017-Dec-01 12:59N 54°14' W 130°20'0 0.0
2017-Dec-01 12:29N 54°14' W 130°20'0 0.0
2017-Dec-01 11:59N 54°14' W 130°20'0 0.0
2017-Dec-01 11:29N 54°14' W 130°20'0 0.0
2017-Dec-01 10:59N 54°14' W 130°20'0 0.0
2017-Dec-01 10:29N 54°14' W 130°20'0 0.0
2017-Dec-01 09:59N 54°14' W 130°20'0 0.0
2017-Dec-01 09:29N 54°14' W 130°20'0 0.0
2017-Dec-01 08:59N 54°14' W 130°20'0 0.0
2017-Dec-01 08:29N 54°14' W 130°20'0 0.0
2017-Dec-01 07:59N 54°14' W 130°20'0 0.0
2017-Dec-01 07:29N 54°14' W 130°20'0 0.0
2017-Dec-01 06:59N 54°14' W 130°20'0 0.0
2017-Dec-01 06:29N 54°14' W 130°20'0 0.0
2017-Dec-01 05:56N 54°14' W 130°20'0 0.0
2017-Dec-01 05:29N 54°14' W 130°20'0 0.0
2017-Dec-01 04:59N 54°14' W 130°20'0 0.0
2017-Dec-01 04:29N 54°14' W 130°20'0 0.0
2017-Dec-01 03:59N 54°14' W 130°20'0 0.0
2017-Dec-01 03:29N 54°14' W 130°20'0 0.0
2017-Dec-01 02:59N 54°14' W 130°20'0 0.0
2017-Dec-01 02:29N 54°14' W 130°20'0 0.0
2017-Dec-01 01:59N 54°14' W 130°20'0 0.0
2017-Dec-01 01:29N 54°14' W 130°20'0 0.0
2017-Dec-01 00:59N 54°14' W 130°20'0 0.0
2017-Dec-01 00:29N 54°14' W 130°20'0 0.0
2017-Nov-30 23:59N 54°14' W 130°20'0 0.0
2017-Nov-30 23:29N 54°14' W 130°20'0 0.0
2017-Nov-30 22:59N 54°14' W 130°20'0 0.0
2017-Nov-30 22:29N 54°14' W 130°20'0 0.0
2017-Nov-30 21:59N 54°14' W 130°20'0 0.0
2017-Nov-30 21:29N 54°14' W 130°20'0 0.0
2017-Nov-30 20:59N 54°14' W 130°20'0 0.0
2017-Nov-30 20:29N 54°14' W 130°20'0 0.0
2017-Nov-30 19:59N 54°14' W 130°20'0 0.0
2017-Nov-30 19:29N 54°14' W 130°20'0 0.0
2017-Nov-30 18:56N 54°14' W 130°20'0 0.0
2017-Nov-30 18:29N 54°14' W 130°20'0 0.0
2017-Nov-30 17:59N 54°14' W 130°20'0 0.0
2017-Nov-30 17:29N 54°14' W 130°20'0 0.0
2017-Nov-30 16:59N 54°14' W 130°20'0 0.0
2017-Nov-30 16:29N 54°14' W 130°20'0 0.0
2017-Nov-30 15:59N 54°14' W 130°20'0 0.0
2017-Nov-30 15:29N 54°14' W 130°20'0 0.0
2017-Nov-30 14:56N 54°14' W 130°20'0 0.0
2017-Nov-30 14:29N 54°14' W 130°20'0 0.0
2017-Nov-30 13:59N 54°14' W 130°20'0 0.0
2017-Nov-30 13:29N 54°14' W 130°20'0 0.0
2017-Nov-30 12:59N 54°14' W 130°20'0 0.0
2017-Nov-30 12:29N 54°14' W 130°20'0 0.0
2017-Nov-30 11:59N 54°14' W 130°20'0 0.0
2017-Nov-30 11:29N 54°14' W 130°20'0 0.0
2017-Nov-30 10:59N 54°14' W 130°20'0 0.0
2017-Nov-30 10:29N 54°14' W 130°20'0 0.0
2017-Nov-30 09:59N 54°14' W 130°20'0 0.0
2017-Nov-30 09:29N 54°14' W 130°20'0 0.0
2017-Nov-30 08:59N 54°14' W 130°20'0 0.0
2017-Nov-30 08:26N 54°14' W 130°20'0 0.0
2017-Nov-30 07:59N 54°14' W 130°20'0 0.0
2017-Nov-30 07:29N 54°14' W 130°20'0 0.0
2017-Nov-30 06:59N 54°14' W 130°20'0 0.0
2017-Nov-30 06:29N 54°14' W 130°20'0 0.0
2017-Nov-30 05:59N 54°14' W 130°20'0 0.0
2017-Nov-30 05:29N 54°14' W 130°20'0 0.0
2017-Nov-30 04:59N 54°14' W 130°20'0 0.0
2017-Nov-30 04:29N 54°14' W 130°20'0 0.0
2017-Nov-30 03:59N 54°14' W 130°20'0 0.0
2017-Nov-30 03:29N 54°14' W 130°20'0 0.0
2017-Nov-30 02:59N 54°14' W 130°20'0 0.0
2017-Nov-30 02:29N 54°14' W 130°20'0 0.1
2017-Nov-30 02:00N 54°14' W 130°20'1 1.7
2017-Nov-30 01:31N 54°15' W 130°21'4 7.1
2017-Nov-30 01:01N 54°18' W 130°22'3 6.9
2017-Nov-30 00:31N 54°21' W 130°17'0 0.1
2017-Nov-30 00:00N 54°20' W 130°17'0 0.1
2017-Nov-29 23:30N 54°21' W 130°18'0 0.0
2017-Nov-29 22:57N 54°21' W 130°18'0 0.0
2017-Nov-29 22:30N 54°21' W 130°18'0 0.1
2017-Nov-29 22:00N 54°21' W 130°17'0 0.3
2017-Nov-29 21:30N 54°20' W 130°17'0 0.2
2017-Nov-29 21:00N 54°20' W 130°17'0 0.3
2017-Nov-29 20:30N 54°20' W 130°18'0 0.1
2017-Nov-29 19:51N 54°20' W 130°18'0 0.1
2017-Nov-29 19:30N 54°21' W 130°18'0 0.2
2017-Nov-29 19:00N 54°21' W 130°17'0 0.0
2017-Nov-29 18:30N 54°21' W 130°17'0 0.0
2017-Nov-29 18:00N 54°21' W 130°17'0 0.0
2017-Nov-29 17:30N 54°21' W 130°17'0 0.0
2017-Nov-29 17:00N 54°21' W 130°17'  
Track history (hours):
 
Tides and Currents Weather Stations Pressure Air Temp Water Temp Dewpoint Dewpoint Depression Visibility Wind Speed Wind Dir Waves Ship Positions

Van Star

Last reported at 2017-Dec-09 16:31 UTC. Time now 2017-Dec-16 15:12 UTC.
Position N 29°60' W 121°59'.

Length 199 m; draft 13.9 m.

Type: Cargo ship. MMSI: 354084000.

Date/timePositionNaut miles runAvg speedWind from/ knotsBaromVisibWave heightAir tempDewpointWater temp
2017-Dec-09 16:31N 29°60' W 121°59'0 6.5
2017-Dec-09 16:30N 29°60' W 121°59'3712.8
2017-Dec-09 13:35N 30°30' W 122°24'113.0
2017-Dec-09 13:29N 30°31' W 122°25'612.8
2017-Dec-09 13:01N 30°36' W 122°29'21212.8
2017-Dec-08 20:25N 33°31' W 124°50'613.0
2017-Dec-08 19:58N 33°36' W 124°54'1012.8
2017-Dec-08 19:11N 33°44' W 125°01'212.6
2017-Dec-08 19:01N 33°46' W 125°02'712.8
2017-Dec-08 18:28N 33°52' W 125°07'10813.0
2017-Dec-08 10:10N 35°21' W 126°20'513.2
2017-Dec-08 09:47N 35°25' W 126°23'1013.1
2017-Dec-08 08:59N 35°34' W 126°31'1112.9
2017-Dec-08 08:09N 35°43' W 126°38'212.8
2017-Dec-08 08:00N 35°44' W 126°39'713.1
2017-Dec-08 07:30N 35°50' W 126°44'713.2
2017-Dec-08 07:00N 35°56' W 126°48'613.2
2017-Dec-08 06:31N 36°01' W 126°53'713.1
2017-Dec-08 06:00N 36°06' W 126°58'612.9
2017-Dec-08 05:30N 36°11' W 127°02'612.8
2017-Dec-08 05:00N 36°16' W 127°07'713.3
2017-Dec-08 04:31N 36°22' W 127°12'713.3
2017-Dec-08 04:01N 36°27' W 127°17'713.3
2017-Dec-08 03:30N 36°33' W 127°21'913.5
2017-Dec-08 02:51N 36°40' W 127°27'513.5
2017-Dec-08 02:30N 36°44' W 127°31'713.5
2017-Dec-08 01:57N 36°50' W 127°36'2113.2
2017-Dec-08 00:23N 37°08' W 127°50'9812.8
2017-Dec-07 16:42N 38°38' W 128°39'212.6
2017-Dec-07 16:30N 38°40' W 128°41'712.7
2017-Dec-07 15:57N 38°47' W 128°44'25112.9
2017-Dec-06 20:30N 42°37' W 130°57'  
2017-Dec-03 09:19N 54°21' W 131°10'411.2
2017-Dec-03 09:00N 54°20' W 131°04'510.8
2017-Dec-03 08:30N 54°19' W 130°55'510.2
2017-Dec-03 08:00N 54°17' W 130°47'510.7
2017-Dec-03 07:30N 54°15' W 130°39'511.0
2017-Dec-03 07:00N 54°14' W 130°30'5 9.9
2017-Dec-03 06:30N 54°13' W 130°21'4 8.4
2017-Dec-03 06:00N 54°17' W 130°22'4 7.6
2017-Dec-03 05:31N 54°20' W 130°17'0 0.5
2017-Dec-03 05:00N 54°20' W 130°17'0 0.0
2017-Dec-03 04:30N 54°20' W 130°17'0 0.1
2017-Dec-03 04:00N 54°20' W 130°18'0 0.0
2017-Dec-03 03:30N 54°20' W 130°18'0 0.0
2017-Dec-03 03:00N 54°20' W 130°18'0 0.1
2017-Dec-03 02:30N 54°20' W 130°18'0 0.0
2017-Dec-03 02:00N 54°20' W 130°18'0 0.0
2017-Dec-03 01:30N 54°20' W 130°18'0 0.0
2017-Dec-03 01:00N 54°20' W 130°18'0 0.1
2017-Dec-03 00:30N 54°20' W 130°17'0 0.1
2017-Dec-03 00:00N 54°20' W 130°18'0 0.2
2017-Dec-02 23:30N 54°20' W 130°18'0 0.0
2017-Dec-02 23:00N 54°20' W 130°18'0 0.0
2017-Dec-02 22:30N 54°20' W 130°18'0 0.1
2017-Dec-02 22:00N 54°20' W 130°17'0 0.1
2017-Dec-02 21:27N 54°20' W 130°18'0 0.1
2017-Dec-02 21:00N 54°20' W 130°18'0 0.2
2017-Dec-02 20:30N 54°20' W 130°17'0 0.2
2017-Dec-02 19:45N 54°20' W 130°17'0 0.1
2017-Dec-02 19:30N 54°20' W 130°17'0 0.1
2017-Dec-02 19:00N 54°20' W 130°17'0 0.1
2017-Dec-02 17:36N 54°20' W 130°17'0 0.1
2017-Dec-02 17:24N 54°20' W 130°17'0 0.1
2017-Dec-02 16:36N 54°20' W 130°18'0 0.0
2017-Dec-02 16:21N 54°20' W 130°18'0 0.0
2017-Dec-02 14:27N 54°20' W 130°18'0 0.0
2017-Dec-02 13:42N 54°20' W 130°18'0 0.0
2017-Dec-02 13:27N 54°20' W 130°18'0 0.1
2017-Dec-02 12:57N 54°20' W 130°18'0 0.0
2017-Dec-02 08:12N 54°20' W 130°17'0 0.1
2017-Dec-02 08:00N 54°20' W 130°17'0 0.0
2017-Dec-02 07:30N 54°20' W 130°17'0 0.1
2017-Dec-02 06:51N 54°20' W 130°17'0 0.1
2017-Dec-02 04:00N 54°20' W 130°18'0 0.0
2017-Dec-02 03:26N 54°20' W 130°18'0 0.0
2017-Dec-02 02:39N 54°20' W 130°18'0 0.0
2017-Dec-02 02:30N 54°20' W 130°18'0 0.2
2017-Dec-02 02:00N 54°20' W 130°17'3 3.5
2017-Dec-02 01:10N 54°19' W 130°21'1 7.4
2017-Dec-02 01:00N 54°17' W 130°22'3 6.8
2017-Dec-02 00:30N 54°14' W 130°21'0 0.6
2017-Dec-01 23:59N 54°14' W 130°20'0 0.0
2017-Dec-01 23:29N 54°14' W 130°20'0 0.0
2017-Dec-01 22:59N 54°14' W 130°20'0 0.0
2017-Dec-01 22:29N 54°14' W 130°20'0 0.0
2017-Dec-01 21:56N 54°14' W 130°20'0 0.0
2017-Dec-01 21:29N 54°14' W 130°20'0 0.0
2017-Dec-01 20:56N 54°14' W 130°20'0 0.0
2017-Dec-01 20:29N 54°14' W 130°20'0 0.0
2017-Dec-01 19:59N 54°14' W 130°20'0 0.0
2017-Dec-01 19:29N 54°14' W 130°20'0 0.0
2017-Dec-01 18:59N 54°14' W 130°20'0 0.0
2017-Dec-01 18:26N 54°14' W 130°20'0 0.0
2017-Dec-01 17:59N 54°14' W 130°20'0 0.0
2017-Dec-01 17:29N 54°14' W 130°20'0 0.0
2017-Dec-01 16:56N 54°14' W 130°20'0 0.0
2017-Dec-01 16:29N 54°14' W 130°20'0 0.0
2017-Dec-01 15:59N 54°14' W 130°20'0 0.0
2017-Dec-01 15:29N 54°14' W 130°20'0 0.0
2017-Dec-01 14:59N 54°14' W 130°20'0 0.0
2017-Dec-01 14:29N 54°14' W 130°20'0 0.0
2017-Dec-01 13:59N 54°14' W 130°20'0 0.0
2017-Dec-01 13:29N 54°14' W 130°20'0 0.0
2017-Dec-01 12:59N 54°14' W 130°20'0 0.0
2017-Dec-01 12:29N 54°14' W 130°20'0 0.0
2017-Dec-01 11:59N 54°14' W 130°20'0 0.0
2017-Dec-01 11:29N 54°14' W 130°20'0 0.0
2017-Dec-01 10:59N 54°14' W 130°20'0 0.0
2017-Dec-01 10:29N 54°14' W 130°20'0 0.0
2017-Dec-01 09:59N 54°14' W 130°20'0 0.0
2017-Dec-01 09:29N 54°14' W 130°20'0 0.0
2017-Dec-01 08:59N 54°14' W 130°20'0 0.0
2017-Dec-01 08:29N 54°14' W 130°20'0 0.0
2017-Dec-01 07:59N 54°14' W 130°20'0 0.0
2017-Dec-01 07:29N 54°14' W 130°20'0 0.0
2017-Dec-01 06:59N 54°14' W 130°20'0 0.0
2017-Dec-01 06:29N 54°14' W 130°20'0 0.0
2017-Dec-01 05:56N 54°14' W 130°20'0 0.0
2017-Dec-01 05:29N 54°14' W 130°20'0 0.0
2017-Dec-01 04:59N 54°14' W 130°20'0 0.0
2017-Dec-01 04:29N 54°14' W 130°20'0 0.0
2017-Dec-01 03:59N 54°14' W 130°20'0 0.0
2017-Dec-01 03:29N 54°14' W 130°20'0 0.0
2017-Dec-01 02:59N 54°14' W 130°20'0 0.0
2017-Dec-01 02:29N 54°14' W 130°20'0 0.0
2017-Dec-01 01:59N 54°14' W 130°20'0 0.0
2017-Dec-01 01:29N 54°14' W 130°20'0 0.0
2017-Dec-01 00:59N 54°14' W 130°20'0 0.0
2017-Dec-01 00:29N 54°14' W 130°20'0 0.0
2017-Nov-30 23:59N 54°14' W 130°20'0 0.0
2017-Nov-30 23:29N 54°14' W 130°20'0 0.0
2017-Nov-30 22:59N 54°14' W 130°20'0 0.0
2017-Nov-30 22:29N 54°14' W 130°20'0 0.0
2017-Nov-30 21:59N 54°14' W 130°20'0 0.0
2017-Nov-30 21:29N 54°14' W 130°20'0 0.0
2017-Nov-30 20:59N 54°14' W 130°20'0 0.0
2017-Nov-30 20:29N 54°14' W 130°20'0 0.0
2017-Nov-30 19:59N 54°14' W 130°20'0 0.0
2017-Nov-30 19:29N 54°14' W 130°20'0 0.0
2017-Nov-30 18:56N 54°14' W 130°20'0 0.0
2017-Nov-30 18:29N 54°14' W 130°20'0 0.0
2017-Nov-30 17:59N 54°14' W 130°20'0 0.0
2017-Nov-30 17:29N 54°14' W 130°20'0 0.0
2017-Nov-30 16:59N 54°14' W 130°20'0 0.0
2017-Nov-30 16:29N 54°14' W 130°20'0 0.0
2017-Nov-30 15:59N 54°14' W 130°20'0 0.0
2017-Nov-30 15:29N 54°14' W 130°20'0 0.0
2017-Nov-30 14:56N 54°14' W 130°20'0 0.0
2017-Nov-30 14:29N 54°14' W 130°20'0 0.0
2017-Nov-30 13:59N 54°14' W 130°20'0 0.0
2017-Nov-30 13:29N 54°14' W 130°20'0 0.0
2017-Nov-30 12:59N 54°14' W 130°20'0 0.0
2017-Nov-30 12:29N 54°14' W 130°20'0 0.0
2017-Nov-30 11:59N 54°14' W 130°20'0 0.0
2017-Nov-30 11:29N 54°14' W 130°20'0 0.0
2017-Nov-30 10:59N 54°14' W 130°20'0 0.0
2017-Nov-30 10:29N 54°14' W 130°20'0 0.0
2017-Nov-30 09:59N 54°14' W 130°20'0 0.0
2017-Nov-30 09:29N 54°14' W 130°20'0 0.0
2017-Nov-30 08:59N 54°14' W 130°20'0 0.0
2017-Nov-30 08:26N 54°14' W 130°20'0 0.0
2017-Nov-30 07:59N 54°14' W 130°20'0 0.0
2017-Nov-30 07:29N 54°14' W 130°20'0 0.0
2017-Nov-30 06:59N 54°14' W 130°20'0 0.0
2017-Nov-30 06:29N 54°14' W 130°20'0 0.0
2017-Nov-30 05:59N 54°14' W 130°20'0 0.0
2017-Nov-30 05:29N 54°14' W 130°20'0 0.0
2017-Nov-30 04:59N 54°14' W 130°20'0 0.0
2017-Nov-30 04:29N 54°14' W 130°20'0 0.0
2017-Nov-30 03:59N 54°14' W 130°20'0 0.0
2017-Nov-30 03:29N 54°14' W 130°20'0 0.0
2017-Nov-30 02:59N 54°14' W 130°20'0 0.0
2017-Nov-30 02:29N 54°14' W 130°20'0 0.1
2017-Nov-30 02:00N 54°14' W 130°20'1 1.7
2017-Nov-30 01:31N 54°15' W 130°21'4 7.1
2017-Nov-30 01:01N 54°18' W 130°22'3 6.9
2017-Nov-30 00:31N 54°21' W 130°17'0 0.1
2017-Nov-30 00:00N 54°20' W 130°17'0 0.1
2017-Nov-29 23:30N 54°21' W 130°18'0 0.0
2017-Nov-29 22:57N 54°21' W 130°18'0 0.0
2017-Nov-29 22:30N 54°21' W 130°18'0 0.1
2017-Nov-29 22:00N 54°21' W 130°17'0 0.3
2017-Nov-29 21:30N 54°20' W 130°17'0 0.2
2017-Nov-29 21:00N 54°20' W 130°17'0 0.3
2017-Nov-29 20:30N 54°20' W 130°18'0 0.1
2017-Nov-29 19:51N 54°20' W 130°18'0 0.1
2017-Nov-29 19:30N 54°21' W 130°18'0 0.2
2017-Nov-29 19:00N 54°21' W 130°17'0 0.0
2017-Nov-29 18:30N 54°21' W 130°17'0 0.0
2017-Nov-29 18:00N 54°21' W 130°17'0 0.0
2017-Nov-29 17:30N 54°21' W 130°17'0 0.0
2017-Nov-29 17:00N 54°21' W 130°17'  

Dump ship's entire track history